Harrisonville, Pennsylvania
Current Conditions -  °F | °C
As of 6:53 AM on Friday 21 Nov 2014 (Local Time) from KAOO Reporting Station
Broken Clouds Broken Clouds  
Wind Chill: 10°   Ceiling: 3000
Heat Index: 20°   Visibility: 10mi
Dew Point: 11°   Wind: 8mph
Humidity: 68%   Direction: 290°WNW
Pressure: 30.25"   Gusts: NA
Location:  39.99°N, 78.06°W
Report Text: KAOO 211153Z AUTO 29007KT 10SM BKN030 BKN037 M07/M12 A3025 RMK AO2 SLP269 60000 T10671117 11056 21067 51024
Loading
Personal Weather Stations






























Interactive Weather Map New forecast layout! Learn more

10-Day Weather Forecast

Advertisements
Track Severe Weather on mobile